Blue Yonder — WCW3625 — position and weather

sailwx.info

Track history (hours):
 
Tides and Currents Weather Stations Pressure Air Temp Water Temp Dewpoint Dewpoint Depression Visibility Wind Speed Wind Dir Waves Ship Positions

Blue Yonder

Owner: BRIDGES, DAVID M, VIRGINIA BEACH, VA. More information available from US FCC via Universal Licensing System and Coast Guard Vessel Documentation Center.

Last reported at 2017-May-06 21:18 UTC. Time now 2017-Aug-19 22:36 UTC.
Position N 26°14' W 079°60'.
Warning: this ship's position is months out of date.

Length 12 m.

Type: Sailing vessel. MMSI: 367091720.

Date/timePositionNaut miles runAvg speedWind from/ knotsBaromVisibWave heightAir tempDewpointWater temp
2017-May-06 21:18N 26°14' W 079°60'2 7.2
2017-May-06 21:00N 26°12' W 080°00'4 7.2
2017-May-06 20:29N 26°08' W 080°02'4 7.0
2017-May-06 19:59N 26°06' W 080°05'2 4.0
2017-May-06 19:28N 26°06' W 080°07'1 1.1
2017-May-06 18:54N 26°07' W 080°08'0 0.0
2017-May-06 18:24N 26°07' W 080°08'0 0.0
2017-May-06 17:54N 26°07' W 080°08'610.6
2017-May-06 17:21N 26°12' W 080°08'614.5
2017-May-06 16:57N 26°07' W 080°08'0 0.0
2017-May-06 16:27N 26°07' W 080°08'0 0.0
2017-May-06 15:57N 26°07' W 080°08'0 0.0
2017-May-06 15:27N 26°07' W 080°08'0 0.0
2017-May-06 14:57N 26°07' W 080°08'0 0.0
2017-May-06 14:24N 26°07' W 080°08'  
2017-Apr-28 13:59N 26°06' W 080°07'0 0.5
2017-Apr-28 13:04N 26°06' W 080°07'0 3.8
2017-Apr-28 13:00N 26°07' W 080°07'  
Track history (hours):
 
Tides and Currents Weather Stations Pressure Air Temp Water Temp Dewpoint Dewpoint Depression Visibility Wind Speed Wind Dir Waves Ship Positions

Blue Yonder

Owner: BRIDGES, DAVID M, VIRGINIA BEACH, VA. More information available from US FCC via Universal Licensing System and Coast Guard Vessel Documentation Center.

Last reported at 2017-May-06 21:18 UTC. Time now 2017-Aug-19 22:36 UTC.
Position N 26°14' W 079°60'.
Warning: this ship's position is months out of date.

Length 12 m.

Type: Sailing vessel. MMSI: 367091720.

Date/timePositionNaut miles runAvg speedWind from/ knotsBaromVisibWave heightAir tempDewpointWater temp
2017-May-06 21:18N 26°14' W 079°60'2 7.2
2017-May-06 21:00N 26°12' W 080°00'4 7.2
2017-May-06 20:29N 26°08' W 080°02'4 7.0
2017-May-06 19:59N 26°06' W 080°05'2 4.0
2017-May-06 19:28N 26°06' W 080°07'1 1.1
2017-May-06 18:54N 26°07' W 080°08'0 0.0
2017-May-06 18:24N 26°07' W 080°08'0 0.0
2017-May-06 17:54N 26°07' W 080°08'610.6
2017-May-06 17:21N 26°12' W 080°08'614.5
2017-May-06 16:57N 26°07' W 080°08'0 0.0
2017-May-06 16:27N 26°07' W 080°08'0 0.0
2017-May-06 15:57N 26°07' W 080°08'0 0.0
2017-May-06 15:27N 26°07' W 080°08'0 0.0
2017-May-06 14:57N 26°07' W 080°08'0 0.0
2017-May-06 14:24N 26°07' W 080°08'  
2017-Apr-28 13:59N 26°06' W 080°07'0 0.5
2017-Apr-28 13:04N 26°06' W 080°07'0 3.8
2017-Apr-28 13:00N 26°07' W 080°07'  

Dump ship's entire track history